sensor_id;sensor_type;location;lat;lon;timestamp;P1;durP1;ratioP1;P2;durP2;ratioP2
80195;SDS011;69516;42.050;21.516;2023-09-08T00:01:58;10.93;;;6.65;;
80195;SDS011;69516;42.050;21.516;2023-09-08T00:04:24;12.07;;;6.90;;
80195;SDS011;69516;42.050;21.516;2023-09-08T00:06:50;11.75;;;7.18;;
80195;SDS011;69516;42.050;21.516;2023-09-08T00:09:16;11.13;;;7.15;;
80195;SDS011;69516;42.050;21.516;2023-09-08T00:11:42;10.75;;;7.35;;
80195;SDS011;69516;42.050;21.516;2023-09-08T00:14:08;10.88;;;6.55;;
80195;SDS011;69516;42.050;21.516;2023-09-08T00:16:35;10.98;;;6.90;;
80195;SDS011;69516;42.050;21.516;2023-09-08T00:19:04;10.60;;;6.93;;
80195;SDS011;69516;42.050;21.516;2023-09-08T00:21:30;10.75;;;6.78;;
80195;SDS011;69516;42.050;21.516;2023-09-08T00:23:56;11.73;;;6.65;;
80195;SDS011;69516;42.050;21.516;2023-09-08T00:26:22;13.13;;;6.97;;
80195;SDS011;69516;42.050;21.516;2023-09-08T00:28:48;12.30;;;6.78;;
80195;SDS011;69516;42.050;21.516;2023-09-08T00:31:15;12.77;;;7.32;;
80195;SDS011;69516;42.050;21.516;2023-09-08T00:33:41;11.77;;;6.93;;
80195;SDS011;69516;42.050;21.516;2023-09-08T00:36:09;14.38;;;7.53;;
80195;SDS011;69516;42.050;21.516;2023-09-08T00:38:35;11.52;;;7.50;;
80195;SDS011;69516;42.050;21.516;2023-09-08T00:41:01;13.02;;;7.13;;
80195;SDS011;69516;42.050;21.516;2023-09-08T00:43:27;10.93;;;7.30;;
80195;SDS011;69516;42.050;21.516;2023-09-08T00:45:54;15.20;;;7.93;;
80195;SDS011;69516;42.050;21.516;2023-09-08T00:48:20;11.68;;;7.40;;
80195;SDS011;69516;42.050;21.516;2023-09-08T00:50:46;10.32;;;6.75;;
80195;SDS011;69516;42.050;21.516;2023-09-08T00:53:13;10.73;;;7.28;;
80195;SDS011;69516;42.050;21.516;2023-09-08T00:55:39;11.18;;;7.25;;
80195;SDS011;69516;42.050;21.516;2023-09-08T00:58:06;11.55;;;7.03;;
80195;SDS011;69516;42.050;21.516;2023-09-08T01:00:32;11.30;;;7.18;;
80195;SDS011;69516;42.050;21.516;2023-09-08T01:02:59;10.30;;;6.85;;
80195;SDS011;69516;42.050;21.516;2023-09-08T01:05:25;12.18;;;6.65;;
80195;SDS011;69516;42.050;21.516;2023-09-08T01:07:51;11.85;;;6.57;;
80195;SDS011;69516;42.050;21.516;2023-09-08T01:10:18;9.13;;;6.50;;
80195;SDS011;69516;42.050;21.516;2023-09-08T01:12:45;11.50;;;6.50;;
80195;SDS011;69516;42.050;21.516;2023-09-08T01:15:11;10.18;;;6.20;;
80195;SDS011;69516;42.050;21.516;2023-09-08T01:17:37;11.70;;;7.03;;
80195;SDS011;69516;42.050;21.516;2023-09-08T01:20:04;10.75;;;6.57;;
80195;SDS011;69516;42.050;21.516;2023-09-08T01:22:43;8.88;;;6.53;;
80195;SDS011;69516;42.050;21.516;2023-09-08T01:27:41;10.63;;;6.85;;
80195;SDS011;69516;42.050;21.516;2023-09-08T01:30:09;8.95;;;6.45;;
80195;SDS011;69516;42.050;21.516;2023-09-08T01:32:36;9.52;;;6.25;;
80195;SDS011;69516;42.050;21.516;2023-09-08T01:35:02;11.48;;;6.95;;
80195;SDS011;69516;42.050;21.516;2023-09-08T01:37:28;12.32;;;6.72;;
80195;SDS011;69516;42.050;21.516;2023-09-08T01:39:54;10.45;;;6.55;;
80195;SDS011;69516;42.050;21.516;2023-09-08T01:42:20;14.07;;;7.07;;
80195;SDS011;69516;42.050;21.516;2023-09-08T01:44:47;14.02;;;6.85;;
80195;SDS011;69516;42.050;21.516;2023-09-08T01:47:13;9.52;;;7.13;;
80195;SDS011;69516;42.050;21.516;2023-09-08T01:49:39;10.98;;;6.78;;
80195;SDS011;69516;42.050;21.516;2023-09-08T01:52:05;8.15;;;5.88;;
80195;SDS011;69516;42.050;21.516;2023-09-08T01:54:31;8.68;;;5.93;;
80195;SDS011;69516;42.050;21.516;2023-09-08T01:56:57;10.48;;;6.32;;
80195;SDS011;69516;42.050;21.516;2023-09-08T01:59:23;13.23;;;7.00;;
80195;SDS011;69516;42.050;21.516;2023-09-08T02:01:49;9.00;;;6.30;;
80195;SDS011;69516;42.050;21.516;2023-09-08T02:04:16;8.85;;;6.43;;
80195;SDS011;69516;42.050;21.516;2023-09-08T02:06:42;10.93;;;6.43;;
80195;SDS011;69516;42.050;21.516;2023-09-08T02:09:08;9.50;;;6.60;;
80195;SDS011;69516;42.050;21.516;2023-09-08T02:11:37;10.38;;;7.00;;
80195;SDS011;69516;42.050;21.516;2023-09-08T02:14:03;13.25;;;7.00;;
80195;SDS011;69516;42.050;21.516;2023-09-08T02:16:29;11.43;;;7.40;;
80195;SDS011;69516;42.050;21.516;2023-09-08T02:18:55;12.18;;;7.28;;
80195;SDS011;69516;42.050;21.516;2023-09-08T02:21:22;10.70;;;6.85;;
80195;SDS011;69516;42.050;21.516;2023-09-08T02:23:48;10.77;;;6.78;;
80195;SDS011;69516;42.050;21.516;2023-09-08T02:26:14;10.40;;;7.25;;
80195;SDS011;69516;42.050;21.516;2023-09-08T02:28:40;11.55;;;6.70;;
80195;SDS011;69516;42.050;21.516;2023-09-08T02:31:06;10.63;;;6.47;;
80195;SDS011;69516;42.050;21.516;2023-09-08T02:33:32;11.43;;;7.03;;
80195;SDS011;69516;42.050;21.516;2023-09-08T02:36:03;10.60;;;6.50;;
80195;SDS011;69516;42.050;21.516;2023-09-08T02:38:31;10.27;;;6.70;;
80195;SDS011;69516;42.050;21.516;2023-09-08T02:40:57;11.05;;;6.75;;
80195;SDS011;69516;42.050;21.516;2023-09-08T02:43:23;9.85;;;6.22;;
80195;SDS011;69516;42.050;21.516;2023-09-08T02:45:49;10.27;;;6.50;;
80195;SDS011;69516;42.050;21.516;2023-09-08T02:48:15;9.40;;;6.57;;
80195;SDS011;69516;42.050;21.516;2023-09-08T02:50:42;11.20;;;6.53;;
80195;SDS011;69516;42.050;21.516;2023-09-08T02:53:08;10.13;;;6.60;;
80195;SDS011;69516;42.050;21.516;2023-09-08T02:55:34;11.65;;;7.30;;
80195;SDS011;69516;42.050;21.516;2023-09-08T02:58:00;10.57;;;6.85;;
80195;SDS011;69516;42.050;21.516;2023-09-08T03:00:26;14.60;;;7.18;;
80195;SDS011;69516;42.050;21.516;2023-09-08T03:02:52;12.20;;;7.00;;
80195;SDS011;69516;42.050;21.516;2023-09-08T03:05:18;9.73;;;6.97;;
80195;SDS011;69516;42.050;21.516;2023-09-08T03:07:47;9.40;;;6.72;;
80195;SDS011;69516;42.050;21.516;2023-09-08T03:10:14;9.05;;;6.47;;
80195;SDS011;69516;42.050;21.516;2023-09-08T03:12:41;9.65;;;6.78;;
80195;SDS011;69516;42.050;21.516;2023-09-08T03:15:08;9.10;;;6.45;;
80195;SDS011;69516;42.050;21.516;2023-09-08T03:17:34;10.95;;;7.25;;
80195;SDS011;69516;42.050;21.516;2023-09-08T03:20:00;11.43;;;6.93;;
80195;SDS011;69516;42.050;21.516;2023-09-08T03:22:26;12.32;;;7.13;;
80195;SDS011;69516;42.050;21.516;2023-09-08T03:24:52;10.00;;;7.40;;
80195;SDS011;69516;42.050;21.516;2023-09-08T03:27:18;11.35;;;7.03;;
80195;SDS011;69516;42.050;21.516;2023-09-08T03:29:45;12.10;;;7.30;;
80195;SDS011;69516;42.050;21.516;2023-09-08T03:32:11;10.80;;;7.05;;
80195;SDS011;69516;42.050;21.516;2023-09-08T03:34:37;10.60;;;6.53;;
80195;SDS011;69516;42.050;21.516;2023-09-08T03:37:04;10.32;;;6.78;;
80195;SDS011;69516;42.050;21.516;2023-09-08T03:39:30;13.05;;;7.28;;
80195;SDS011;69516;42.050;21.516;2023-09-08T03:41:57;9.40;;;6.60;;
80195;SDS011;69516;42.050;21.516;2023-09-08T03:44:23;9.57;;;6.55;;
80195;SDS011;69516;42.050;21.516;2023-09-08T03:46:49;13.43;;;7.15;;
80195;SDS011;69516;42.050;21.516;2023-09-08T03:49:15;10.27;;;7.13;;
80195;SDS011;69516;42.050;21.516;2023-09-08T03:51:41;15.77;;;7.53;;
80195;SDS011;69516;42.050;21.516;2023-09-08T03:54:07;12.15;;;7.15;;
80195;SDS011;69516;42.050;21.516;2023-09-08T03:56:33;11.73;;;7.07;;
80195;SDS011;69516;42.050;21.516;2023-09-08T03:59:00;12.25;;;7.35;;
80195;SDS011;69516;42.050;21.516;2023-09-08T04:01:26;10.65;;;7.28;;
80195;SDS011;69516;42.050;21.516;2023-09-08T04:03:52;13.05;;;7.30;;
80195;SDS011;69516;42.050;21.516;2023-09-08T04:06:18;11.27;;;7.70;;
80195;SDS011;69516;42.050;21.516;2023-09-08T04:08:44;12.15;;;8.10;;
80195;SDS011;69516;42.050;21.516;2023-09-08T04:11:10;11.23;;;7.97;;
80195;SDS011;69516;42.050;21.516;2023-09-08T04:13:36;13.38;;;7.82;;
80195;SDS011;69516;42.050;21.516;2023-09-08T04:16:03;10.75;;;7.82;;
80195;SDS011;69516;42.050;21.516;2023-09-08T04:18:29;12.95;;;7.90;;
80195;SDS011;69516;42.050;21.516;2023-09-08T04:20:55;10.00;;;6.85;;
80195;SDS011;69516;42.050;21.516;2023-09-08T04:23:21;10.30;;;7.28;;
80195;SDS011;69516;42.050;21.516;2023-09-08T04:25:47;11.65;;;8.02;;
80195;SDS011;69516;42.050;21.516;2023-09-08T04:28:13;14.73;;;8.18;;
80195;SDS011;69516;42.050;21.516;2023-09-08T04:30:39;10.35;;;7.20;;
80195;SDS011;69516;42.050;21.516;2023-09-08T04:33:05;11.55;;;7.25;;
80195;SDS011;69516;42.050;21.516;2023-09-08T04:35:31;12.05;;;7.85;;
80195;SDS011;69516;42.050;21.516;2023-09-08T04:37:57;11.18;;;7.45;;
80195;SDS011;69516;42.050;21.516;2023-09-08T04:40:24;11.88;;;7.80;;
80195;SDS011;69516;42.050;21.516;2023-09-08T04:42:50;10.73;;;7.68;;
80195;SDS011;69516;42.050;21.516;2023-09-08T04:45:16;12.48;;;7.32;;
80195;SDS011;69516;42.050;21.516;2023-09-08T04:47:42;13.20;;;8.48;;
80195;SDS011;69516;42.050;21.516;2023-09-08T04:50:08;17.92;;;10.52;;
80195;SDS011;69516;42.050;21.516;2023-09-08T04:52:34;20.00;;;13.45;;
80195;SDS011;69516;42.050;21.516;2023-09-08T04:55:01;20.30;;;11.52;;
80195;SDS011;69516;42.050;21.516;2023-09-08T04:57:27;13.27;;;9.40;;
80195;SDS011;69516;42.050;21.516;2023-09-08T04:59:54;13.63;;;9.15;;
80195;SDS011;69516;42.050;21.516;2023-09-08T05:02:20;15.35;;;9.05;;
80195;SDS011;69516;42.050;21.516;2023-09-08T05:04:46;13.32;;;8.48;;
80195;SDS011;69516;42.050;21.516;2023-09-08T05:07:13;13.07;;;8.50;;
80195;SDS011;69516;42.050;21.516;2023-09-08T05:09:39;13.20;;;7.82;;
80195;SDS011;69516;42.050;21.516;2023-09-08T05:12:05;13.57;;;8.43;;
80195;SDS011;69516;42.050;21.516;2023-09-08T05:14:31;12.85;;;8.18;;
80195;SDS011;69516;42.050;21.516;2023-09-08T05:16:57;11.38;;;8.25;;
80195;SDS011;69516;42.050;21.516;2023-09-08T05:19:24;12.13;;;8.48;;
80195;SDS011;69516;42.050;21.516;2023-09-08T05:21:50;15.82;;;8.60;;
80195;SDS011;69516;42.050;21.516;2023-09-08T05:24:17;11.45;;;7.63;;
80195;SDS011;69516;42.050;21.516;2023-09-08T05:26:43;11.85;;;7.43;;
80195;SDS011;69516;42.050;21.516;2023-09-08T05:29:09;13.05;;;7.25;;
80195;SDS011;69516;42.050;21.516;2023-09-08T05:31:35;11.98;;;7.65;;
80195;SDS011;69516;42.050;21.516;2023-09-08T05:34:01;12.43;;;7.55;;
80195;SDS011;69516;42.050;21.516;2023-09-08T05:36:28;16.17;;;8.30;;
80195;SDS011;69516;42.050;21.516;2023-09-08T05:38:56;13.30;;;8.38;;
80195;SDS011;69516;42.050;21.516;2023-09-08T05:41:22;13.98;;;8.55;;
80195;SDS011;69516;42.050;21.516;2023-09-08T05:43:48;11.98;;;7.93;;
80195;SDS011;69516;42.050;21.516;2023-09-08T05:46:14;12.75;;;8.55;;
80195;SDS011;69516;42.050;21.516;2023-09-08T05:48:41;13.77;;;8.48;;
80195;SDS011;69516;42.050;21.516;2023-09-08T05:51:07;13.07;;;8.63;;
80195;SDS011;69516;42.050;21.516;2023-09-08T05:53:33;15.38;;;9.90;;
80195;SDS011;69516;42.050;21.516;2023-09-08T05:56:01;13.27;;;9.18;;
80195;SDS011;69516;42.050;21.516;2023-09-08T05:58:27;12.02;;;8.18;;
80195;SDS011;69516;42.050;21.516;2023-09-08T06:00:53;13.05;;;8.57;;
80195;SDS011;69516;42.050;21.516;2023-09-08T06:03:19;17.98;;;10.77;;
80195;SDS011;69516;42.050;21.516;2023-09-08T06:05:46;15.65;;;9.63;;
80195;SDS011;69516;42.050;21.516;2023-09-08T06:08:12;16.88;;;8.85;;
80195;SDS011;69516;42.050;21.516;2023-09-08T06:10:38;15.70;;;9.50;;
80195;SDS011;69516;42.050;21.516;2023-09-08T06:13:04;12.00;;;8.77;;
80195;SDS011;69516;42.050;21.516;2023-09-08T06:15:30;16.52;;;10.50;;
80195;SDS011;69516;42.050;21.516;2023-09-08T06:17:56;14.23;;;9.20;;
80195;SDS011;69516;42.050;21.516;2023-09-08T06:20:22;14.77;;;10.02;;
80195;SDS011;69516;42.050;21.516;2023-09-08T06:22:50;12.38;;;9.90;;
80195;SDS011;69516;42.050;21.516;2023-09-08T06:25:16;15.75;;;10.25;;
80195;SDS011;69516;42.050;21.516;2023-09-08T06:27:42;13.95;;;9.73;;
80195;SDS011;69516;42.050;21.516;2023-09-08T06:30:08;14.05;;;10.05;;
80195;SDS011;69516;42.050;21.516;2023-09-08T06:32:35;17.55;;;10.52;;
80195;SDS011;69516;42.050;21.516;2023-09-08T06:35:01;16.75;;;11.00;;
80195;SDS011;69516;42.050;21.516;2023-09-08T06:37:27;17.55;;;10.57;;
80195;SDS011;69516;42.050;21.516;2023-09-08T06:39:54;19.02;;;11.45;;
80195;SDS011;69516;42.050;21.516;2023-09-08T06:42:21;18.75;;;11.23;;
80195;SDS011;69516;42.050;21.516;2023-09-08T06:44:47;17.67;;;12.07;;
80195;SDS011;69516;42.050;21.516;2023-09-08T06:47:13;24.33;;;14.95;;
80195;SDS011;69516;42.050;21.516;2023-09-08T06:49:39;24.70;;;15.65;;
80195;SDS011;69516;42.050;21.516;2023-09-08T06:52:06;18.73;;;12.23;;
80195;SDS011;69516;42.050;21.516;2023-09-08T06:54:32;18.55;;;11.45;;
80195;SDS011;69516;42.050;21.516;2023-09-08T06:56:58;18.08;;;11.80;;
80195;SDS011;69516;42.050;21.516;2023-09-08T06:59:25;19.13;;;12.45;;
80195;SDS011;69516;42.050;21.516;2023-09-08T07:01:51;21.83;;;12.82;;
80195;SDS011;69516;42.050;21.516;2023-09-08T07:04:17;22.02;;;12.13;;
80195;SDS011;69516;42.050;21.516;2023-09-08T07:06:43;22.17;;;14.30;;
80195;SDS011;69516;42.050;21.516;2023-09-08T07:09:11;18.23;;;12.48;;
80195;SDS011;69516;42.050;21.516;2023-09-08T07:11:37;18.52;;;11.90;;
80195;SDS011;69516;42.050;21.516;2023-09-08T07:14:03;14.25;;;9.95;;
80195;SDS011;69516;42.050;21.516;2023-09-08T07:16:29;14.25;;;9.75;;
80195;SDS011;69516;42.050;21.516;2023-09-08T07:18:56;18.00;;;10.18;;
80195;SDS011;69516;42.050;21.516;2023-09-08T07:21:22;12.43;;;8.90;;
80195;SDS011;69516;42.050;21.516;2023-09-08T07:23:48;14.68;;;9.27;;
80195;SDS011;69516;42.050;21.516;2023-09-08T07:26:14;15.45;;;9.73;;
80195;SDS011;69516;42.050;21.516;2023-09-08T07:28:41;13.73;;;9.95;;
80195;SDS011;69516;42.050;21.516;2023-09-08T07:31:07;15.45;;;10.10;;
80195;SDS011;69516;42.050;21.516;2023-09-08T07:33:35;15.65;;;10.20;;
80195;SDS011;69516;42.050;21.516;2023-09-08T07:36:05;13.93;;;9.65;;
80195;SDS011;69516;42.050;21.516;2023-09-08T07:38:31;19.35;;;11.10;;
80195;SDS011;69516;42.050;21.516;2023-09-08T07:40:57;14.40;;;10.05;;
80195;SDS011;69516;42.050;21.516;2023-09-08T07:45:51;18.65;;;11.77;;
80195;SDS011;69516;42.050;21.516;2023-09-08T07:48:17;19.45;;;11.82;;
80195;SDS011;69516;42.050;21.516;2023-09-08T07:50:44;17.95;;;11.98;;
80195;SDS011;69516;42.050;21.516;2023-09-08T07:53:10;17.77;;;12.05;;
80195;SDS011;69516;42.050;21.516;2023-09-08T07:55:36;20.17;;;12.65;;
80195;SDS011;69516;42.050;21.516;2023-09-08T07:58:02;21.42;;;12.30;;
80195;SDS011;69516;42.050;21.516;2023-09-08T08:00:29;21.63;;;12.48;;
80195;SDS011;69516;42.050;21.516;2023-09-08T08:02:55;24.00;;;12.55;;
80195;SDS011;69516;42.050;21.516;2023-09-08T08:05:22;21.35;;;13.65;;
80195;SDS011;69516;42.050;21.516;2023-09-08T08:07:48;20.17;;;12.52;;
80195;SDS011;69516;42.050;21.516;2023-09-08T08:10:15;20.63;;;12.73;;
80195;SDS011;69516;42.050;21.516;2023-09-08T08:12:41;24.77;;;13.43;;
80195;SDS011;69516;42.050;21.516;2023-09-08T08:15:08;23.67;;;14.35;;
80195;SDS011;69516;42.050;21.516;2023-09-08T08:17:35;25.15;;;15.48;;
80195;SDS011;69516;42.050;21.516;2023-09-08T08:20:02;39.35;;;25.58;;
80195;SDS011;69516;42.050;21.516;2023-09-08T08:22:35;36.13;;;24.15;;
80195;SDS011;69516;42.050;21.516;2023-09-08T08:25:01;19.83;;;12.45;;
80195;SDS011;69516;42.050;21.516;2023-09-08T08:27:28;21.38;;;12.18;;
80195;SDS011;69516;42.050;21.516;2023-09-08T08:29:56;20.25;;;12.18;;
80195;SDS011;69516;42.050;21.516;2023-09-08T08:32:24;21.00;;;12.63;;
80195;SDS011;69516;42.050;21.516;2023-09-08T08:34:51;23.00;;;13.35;;
80195;SDS011;69516;42.050;21.516;2023-09-08T08:37:17;20.77;;;12.60;;
80195;SDS011;69516;42.050;21.516;2023-09-08T08:39:43;18.33;;;10.52;;
80195;SDS011;69516;42.050;21.516;2023-09-08T08:42:11;18.90;;;11.18;;
80195;SDS011;69516;42.050;21.516;2023-09-08T08:44:38;17.63;;;10.50;;
80195;SDS011;69516;42.050;21.516;2023-09-08T08:47:06;17.00;;;10.35;;
80195;SDS011;69516;42.050;21.516;2023-09-08T08:49:33;18.75;;;11.02;;
80195;SDS011;69516;42.050;21.516;2023-09-08T08:51:59;15.40;;;9.35;;
80195;SDS011;69516;42.050;21.516;2023-09-08T08:54:32;17.50;;;10.02;;
80195;SDS011;69516;42.050;21.516;2023-09-08T08:56:59;16.52;;;9.23;;
80195;SDS011;69516;42.050;21.516;2023-09-08T08:59:25;14.35;;;9.05;;
80195;SDS011;69516;42.050;21.516;2023-09-08T09:01:52;16.70;;;8.55;;
80195;SDS011;69516;42.050;21.516;2023-09-08T09:04:18;14.10;;;8.38;;
80195;SDS011;69516;42.050;21.516;2023-09-08T09:06:44;14.52;;;8.10;;
80195;SDS011;69516;42.050;21.516;2023-09-08T09:09:11;13.93;;;8.45;;
80195;SDS011;69516;42.050;21.516;2023-09-08T09:11:37;12.93;;;7.63;;
80195;SDS011;69516;42.050;21.516;2023-09-08T09:14:03;14.55;;;7.82;;
80195;SDS011;69516;42.050;21.516;2023-09-08T09:16:29;16.25;;;7.95;;
80195;SDS011;69516;42.050;21.516;2023-09-08T09:18:59;13.48;;;7.43;;
80195;SDS011;69516;42.050;21.516;2023-09-08T09:21:47;13.60;;;7.05;;
80195;SDS011;69516;42.050;21.516;2023-09-08T09:24:29;17.52;;;7.05;;
80195;SDS011;69516;42.050;21.516;2023-09-08T09:26:56;10.88;;;7.47;;
80195;SDS011;69516;42.050;21.516;2023-09-08T09:29:22;12.50;;;7.63;;
80195;SDS011;69516;42.050;21.516;2023-09-08T09:31:52;11.93;;;7.22;;
80195;SDS011;69516;42.050;21.516;2023-09-08T09:34:19;10.10;;;6.55;;
80195;SDS011;69516;42.050;21.516;2023-09-08T09:36:47;10.63;;;6.35;;
80195;SDS011;69516;42.050;21.516;2023-09-08T09:39:17;11.27;;;6.47;;
80195;SDS011;69516;42.050;21.516;2023-09-08T09:41:45;10.88;;;6.38;;
80195;SDS011;69516;42.050;21.516;2023-09-08T09:44:11;11.55;;;6.38;;
80195;SDS011;69516;42.050;21.516;2023-09-08T09:46:37;9.55;;;6.20;;
80195;SDS011;69516;42.050;21.516;2023-09-08T09:49:03;11.23;;;5.88;;
80195;SDS011;69516;42.050;21.516;2023-09-08T09:51:30;13.13;;;6.38;;
80195;SDS011;69516;42.050;21.516;2023-09-08T09:53:56;11.30;;;6.13;;
80195;SDS011;69516;42.050;21.516;2023-09-08T09:56:23;9.70;;;5.60;;
80195;SDS011;69516;42.050;21.516;2023-09-08T09:58:50;11.02;;;6.03;;
80195;SDS011;69516;42.050;21.516;2023-09-08T10:01:18;10.80;;;6.07;;
80195;SDS011;69516;42.050;21.516;2023-09-08T10:03:44;10.15;;;6.38;;
80195;SDS011;69516;42.050;21.516;2023-09-08T10:06:11;9.55;;;5.55;;
80195;SDS011;69516;42.050;21.516;2023-09-08T10:08:38;10.05;;;5.82;;
80195;SDS011;69516;42.050;21.516;2023-09-08T10:11:05;9.23;;;5.65;;
80195;SDS011;69516;42.050;21.516;2023-09-08T10:13:33;9.88;;;6.13;;
80195;SDS011;69516;42.050;21.516;2023-09-08T10:16:01;9.05;;;5.28;;
80195;SDS011;69516;42.050;21.516;2023-09-08T10:18:28;9.95;;;5.82;;
80195;SDS011;69516;42.050;21.516;2023-09-08T10:20:55;8.18;;;5.20;;
80195;SDS011;69516;42.050;21.516;2023-09-08T10:23:31;10.48;;;5.40;;
80195;SDS011;69516;42.050;21.516;2023-09-08T10:25:59;12.32;;;5.85;;
80195;SDS011;69516;42.050;21.516;2023-09-08T10:28:25;9.15;;;5.45;;
80195;SDS011;69516;42.050;21.516;2023-09-08T10:30:52;9.75;;;6.03;;
80195;SDS011;69516;42.050;21.516;2023-09-08T10:33:19;11.18;;;5.72;;
80195;SDS011;69516;42.050;21.516;2023-09-08T10:35:46;10.82;;;6.47;;
80195;SDS011;69516;42.050;21.516;2023-09-08T10:43:44;11.02;;;7.07;;
80195;SDS011;69516;42.050;21.516;2023-09-08T10:46:11;11.70;;;6.32;;
80195;SDS011;69516;42.050;21.516;2023-09-08T10:48:46;9.93;;;5.60;;
80195;SDS011;69516;42.050;21.516;2023-09-08T10:51:13;12.85;;;6.80;;
80195;SDS011;69516;42.050;21.516;2023-09-08T10:53:41;12.00;;;6.70;;
80195;SDS011;69516;42.050;21.516;2023-09-08T10:56:07;11.48;;;6.35;;
80195;SDS011;69516;42.050;21.516;2023-09-08T10:58:34;12.70;;;5.90;;
80195;SDS011;69516;42.050;21.516;2023-09-08T11:01:12;9.90;;;6.30;;
80195;SDS011;69516;42.050;21.516;2023-09-08T11:06:05;9.05;;;6.03;;
80195;SDS011;69516;42.050;21.516;2023-09-08T11:08:38;10.10;;;5.50;;
80195;SDS011;69516;42.050;21.516;2023-09-08T11:11:04;11.15;;;6.10;;
80195;SDS011;69516;42.050;21.516;2023-09-08T11:13:32;9.25;;;5.60;;
80195;SDS011;69516;42.050;21.516;2023-09-08T11:15:58;9.20;;;5.80;;
80195;SDS011;69516;42.050;21.516;2023-09-08T11:18:27;10.93;;;5.95;;
80195;SDS011;69516;42.050;21.516;2023-09-08T11:20:53;8.82;;;5.30;;
80195;SDS011;69516;42.050;21.516;2023-09-08T11:23:20;9.80;;;5.65;;
80195;SDS011;69516;42.050;21.516;2023-09-08T11:25:46;9.75;;;5.85;;
80195;SDS011;69516;42.050;21.516;2023-09-08T11:28:12;8.43;;;5.25;;
80195;SDS011;69516;42.050;21.516;2023-09-08T11:30:38;8.50;;;5.53;;
80195;SDS011;69516;42.050;21.516;2023-09-08T11:33:13;9.70;;;5.40;;
80195;SDS011;69516;42.050;21.516;2023-09-08T11:35:40;10.30;;;5.40;;
80195;SDS011;69516;42.050;21.516;2023-09-08T11:38:09;9.70;;;5.32;;
80195;SDS011;69516;42.050;21.516;2023-09-08T11:40:35;11.60;;;6.43;;
80195;SDS011;69516;42.050;21.516;2023-09-08T11:43:02;8.05;;;5.00;;
80195;SDS011;69516;42.050;21.516;2023-09-08T11:45:28;9.75;;;5.53;;
80195;SDS011;69516;42.050;21.516;2023-09-08T11:47:55;10.02;;;5.40;;
80195;SDS011;69516;42.050;21.516;2023-09-08T11:50:22;9.27;;;5.30;;
80195;SDS011;69516;42.050;21.516;2023-09-08T11:52:49;10.43;;;5.85;;
80195;SDS011;69516;42.050;21.516;2023-09-08T11:55:16;9.25;;;5.20;;
80195;SDS011;69516;42.050;21.516;2023-09-08T11:57:42;8.73;;;5.20;;
80195;SDS011;69516;42.050;21.516;2023-09-08T12:00:10;9.32;;;5.38;;
80195;SDS011;69516;42.050;21.516;2023-09-08T12:02:41;7.88;;;5.13;;
80195;SDS011;69516;42.050;21.516;2023-09-08T12:05:40;8.30;;;5.10;;
80195;SDS011;69516;42.050;21.516;2023-09-08T12:07:59;8.48;;;4.97;;
80195;SDS011;69516;42.050;21.516;2023-09-08T12:10:41;11.27;;;5.05;;
80195;SDS011;69516;42.050;21.516;2023-09-08T12:13:07;9.18;;;5.43;;
80195;SDS011;69516;42.050;21.516;2023-09-08T12:15:41;9.30;;;5.07;;
80195;SDS011;69516;42.050;21.516;2023-09-08T12:18:12;8.63;;;4.72;;
80195;SDS011;69516;42.050;21.516;2023-09-08T12:20:40;10.63;;;5.22;;
80195;SDS011;69516;42.050;21.516;2023-09-08T12:23:27;9.35;;;5.40;;
80195;SDS011;69516;42.050;21.516;2023-09-08T12:25:53;9.45;;;5.00;;
80195;SDS011;69516;42.050;21.516;2023-09-08T12:28:19;8.13;;;5.15;;
80195;SDS011;69516;42.050;21.516;2023-09-08T12:30:45;8.23;;;4.88;;
80195;SDS011;69516;42.050;21.516;2023-09-08T12:33:12;8.60;;;5.15;;
80195;SDS011;69516;42.050;21.516;2023-09-08T12:38:05;9.38;;;4.85;;
80195;SDS011;69516;42.050;21.516;2023-09-08T12:40:36;10.00;;;5.57;;
80195;SDS011;69516;42.050;21.516;2023-09-08T12:43:03;9.88;;;4.72;;
80195;SDS011;69516;42.050;21.516;2023-09-08T12:45:30;8.88;;;4.70;;
80195;SDS011;69516;42.050;21.516;2023-09-08T12:48:00;9.82;;;4.47;;
80195;SDS011;69516;42.050;21.516;2023-09-08T12:50:27;8.68;;;4.40;;
80195;SDS011;69516;42.050;21.516;2023-09-08T12:52:54;8.63;;;4.80;;
80195;SDS011;69516;42.050;21.516;2023-09-08T12:55:20;8.45;;;4.50;;
80195;SDS011;69516;42.050;21.516;2023-09-08T12:57:46;6.75;;;4.00;;
80195;SDS011;69516;42.050;21.516;2023-09-08T13:00:14;6.45;;;3.88;;
80195;SDS011;69516;42.050;21.516;2023-09-08T13:02:41;8.20;;;4.70;;
80195;SDS011;69516;42.050;21.516;2023-09-08T13:05:07;12.02;;;5.00;;
80195;SDS011;69516;42.050;21.516;2023-09-08T13:07:33;6.45;;;4.18;;
80195;SDS011;69516;42.050;21.516;2023-09-08T13:09:59;7.68;;;4.40;;
80195;SDS011;69516;42.050;21.516;2023-09-08T13:12:25;10.02;;;5.57;;
80195;SDS011;69516;42.050;21.516;2023-09-08T13:14:52;9.48;;;4.70;;
80195;SDS011;69516;42.050;21.516;2023-09-08T13:17:18;6.90;;;3.85;;
80195;SDS011;69516;42.050;21.516;2023-09-08T13:19:45;7.32;;;3.70;;
80195;SDS011;69516;42.050;21.516;2023-09-08T13:22:11;6.60;;;3.67;;
80195;SDS011;69516;42.050;21.516;2023-09-08T13:24:38;9.18;;;4.55;;
80195;SDS011;69516;42.050;21.516;2023-09-08T13:27:05;10.82;;;5.85;;
80195;SDS011;69516;42.050;21.516;2023-09-08T13:29:31;7.13;;;4.22;;
80195;SDS011;69516;42.050;21.516;2023-09-08T13:31:57;6.60;;;2.90;;
80195;SDS011;69516;42.050;21.516;2023-09-08T13:34:23;7.70;;;3.45;;
80195;SDS011;69516;42.050;21.516;2023-09-08T13:36:50;5.90;;;3.50;;
80195;SDS011;69516;42.050;21.516;2023-09-08T13:39:16;5.03;;;3.00;;
80195;SDS011;69516;42.050;21.516;2023-09-08T13:42:01;6.85;;;3.50;;
80195;SDS011;69516;42.050;21.516;2023-09-08T13:44:27;5.85;;;3.08;;
80195;SDS011;69516;42.050;21.516;2023-09-08T13:46:54;6.43;;;2.80;;
80195;SDS011;69516;42.050;21.516;2023-09-08T13:49:20;5.43;;;2.92;;
80195;SDS011;69516;42.050;21.516;2023-09-08T13:51:47;5.63;;;3.13;;
80195;SDS011;69516;42.050;21.516;2023-09-08T13:54:16;5.82;;;3.10;;
80195;SDS011;69516;42.050;21.516;2023-09-08T13:56:42;7.53;;;3.22;;
80195;SDS011;69516;42.050;21.516;2023-09-08T13:59:08;8.20;;;3.08;;
80195;SDS011;69516;42.050;21.516;2023-09-08T14:01:35;7.63;;;3.20;;
80195;SDS011;69516;42.050;21.516;2023-09-08T14:04:02;6.18;;;3.25;;
80195;SDS011;69516;42.050;21.516;2023-09-08T14:06:28;5.32;;;3.20;;
80195;SDS011;69516;42.050;21.516;2023-09-08T14:08:54;7.22;;;3.90;;
80195;SDS011;69516;42.050;21.516;2023-09-08T14:11:23;6.40;;;3.50;;
80195;SDS011;69516;42.050;21.516;2023-09-08T14:13:49;5.50;;;3.42;;
80195;SDS011;69516;42.050;21.516;2023-09-08T14:16:17;5.68;;;3.30;;
80195;SDS011;69516;42.050;21.516;2023-09-08T14:18:43;6.57;;;3.20;;
80195;SDS011;69516;42.050;21.516;2023-09-08T14:21:09;6.28;;;2.78;;
80195;SDS011;69516;42.050;21.516;2023-09-08T14:23:35;6.32;;;3.00;;
80195;SDS011;69516;42.050;21.516;2023-09-08T14:26:05;7.80;;;2.85;;
80195;SDS011;69516;42.050;21.516;2023-09-08T14:28:32;5.55;;;3.00;;
80195;SDS011;69516;42.050;21.516;2023-09-08T14:30:58;7.47;;;3.45;;
80195;SDS011;69516;42.050;21.516;2023-09-08T14:33:25;7.30;;;3.22;;
80195;SDS011;69516;42.050;21.516;2023-09-08T14:35:51;7.85;;;3.25;;
80195;SDS011;69516;42.050;21.516;2023-09-08T14:38:19;6.25;;;3.33;;